Flight Track Log - Related Links

Times and Time Zones

All times are in EST time to prevent confusion due to time zone crossing. See the LYM752 flight status page for this flight to view local times or setup timezone preferences in your user account.

Time Position Orientation Groundspeed Altitude Reporting Facility
EST Latitude Longitude Course Direction KTS MPH feet Rate Location/Type
Fri 09:33:15 AM 39.8167 -104.6667 180° South 124 143 6,500  Level Denver TRACON
Fri 09:34:15 AM 39.7833 -104.6667 180° South 123 142 7,400 864 Climbing Denver TRACON
Fri 09:35:13 AM 39.7419 -104.6839 198° South 123 142 8,200 706 Climbing Denver Center
Fri 09:36:14 AM 39.7150 -104.6897 189° South 125 144 8,800 732 Climbing Denver Center
Fri 09:37:16 AM 39.6703 -104.6975 188° South 131 151 9,700 829 Climbing Denver Center
Fri 09:38:17 AM 39.6394 -104.7203 210° Southwest 128 147 10,500 836 Climbing Denver Center
Fri 09:39:18 AM 39.6075 -104.7464 212° Southwest 133 153 11,400 836 Climbing Denver Center
Fri 09:40:19 AM 39.5747 -104.7761 215° Southwest 134 154 12,200 738 Climbing Denver Center
Fri 09:41:20 AM 39.5453 -104.8067 219° Southwest 137 158 12,900 689 Climbing Denver Center
Fri 09:42:21 AM 39.5117 -104.8294 208° Southwest 137 158 13,600 738 Climbing Denver Center
Fri 09:43:22 AM 39.4753 -104.8497 203° Southwest 142 163 14,400 787 Climbing Denver Center
Fri 09:44:23 AM 39.4389 -104.8736 207° Southwest 146 168 15,200 738 Climbing Denver Center
Fri 09:45:24 AM 39.4014 -104.9031 211° Southwest 146 168 15,900 639 Climbing Denver Center
Fri 09:46:25 AM 39.3650 -104.9297 210° Southwest 150 173 16,500 293 Climbing Denver Center
Fri 09:47:27 AM 39.3211 -104.9531 202° Southwest 168 193 16,500  Level Denver Center
Fri 09:48:28 AM 39.2739 -104.9797 204° Southwest 184 212 16,500  Level Denver Center
Fri 09:49:29 AM 39.2403 -105.0367 233° Southwest 183 211 16,500 49 Level Denver Center
Fri 09:50:30 AM 39.2050 -105.0850 227° Southwest 184 212 16,600 -98 Climbing Denver Center
Fri 09:51:31 AM 39.1703 -105.1331 227° Southwest 184 212 16,300 -146 Descending Denver Center
Fri 09:52:33 AM 39.1317 -105.1767 221° Southwest 183 211 16,300 -49 Level Denver Center
Fri 09:53:34 AM 39.1006 -105.2281 232° Southwest 180 207 16,200  Descending Denver Center
Fri 09:54:35 AM 39.0656 -105.2794 229° Southwest 188 216 16,300  Climbing Denver Center
Fri 09:55:36 AM 39.0300 -105.3292 227° Southwest 189 217 16,200 -49 Descending Denver Center
Fri 09:56:38 AM 38.9972 -105.3783 229° Southwest 184 212 16,200  Level Denver Center
Fri 09:57:39 AM 38.9664 -105.4267 231° Southwest 177 204 16,200 -49 Level Denver Center
Fri 09:58:40 AM 38.9275 -105.4817 228° Southwest 174 200 16,100  Descending Denver Center
Fri 09:59:42 AM 38.8986 -105.5208 227° Southwest 173 199 16,200 97 Climbing Denver Center

Login

Don't have an account? Register now (free) for customized features, flight alerts, and more!